ペトロパブロフスク・カムチャツキー の空港の天気 - METARとTAF

ペトロパブロフスク・カムチャツキー空港 ( UHPP / PKC ) - ロシア ペトロパブロフスク・カムチャツキー
飛行場実況気象(Metar)
観測時間07/22 11:00 MAGT (07/22 00:00 UTC)
風向・風速南南東 4m/s
視程10km以上
天気現象弱いしゅう雨
全天の4割程度の雲 雲底高度 370m
全天を覆う雲 雲底高度 940m
気温13℃
湿度94%
気圧1009hPa
METARUHPP 220000Z 15004MPS 9999 -SHRA SCT012 OVC031CB 13/12 Q1009 R34L/290250 NOSIG RMK MT OBSC QFE753/1004
過去の天気等 Google飛行場航空写真 Wunderground天気予報

過去48時間のMETAR

飛行場予報(TAF)
発表時間: 7/22 09:51 MAGT (7/21 22:51 UTC)
予報対象時間: 22日11時 MAGT ~ 23日17時 MAGT
風向・風速南 3m/s 瞬間風速 12m/s
視程3,100m
天気現象弱いしゅう雨 もや
全天の8割程度の雲 雲底高度 210m
全天を覆う積乱雲 雲底高度 610m
22日11時 MAGT ~ 22日21時 MAGT に一時的に
視程1,000m
天気現象しゅう雨 もや
全天の8割程度の雲 雲底高度 60m
全天を覆う積乱雲 雲底高度 460m
22日21時 MAGT ~ 23日5時 MAGT に一時的に
視程700m
天気現象
全天を覆う雲 鉛直視程 60m
23日5時 MAGT から
風向・風速北北西 3m/s 瞬間風速 12m/s
視程10km以上
全天の8割程度の積乱雲 雲底高度 910m
全天を覆う雲 雲底高度 1,830m
23日5時 MAGT ~ 23日8時 MAGT に一時的に
視程1,000m
天気現象もや
全天を覆う雲 鉛直視程 90m
TAF UHPP 212251Z 2200/2306 18003G12MPS 3100 -SHRA BR BKN007 OVC020CB
TEMPO 2200/2210 1000 SHRA BR BKN002 OVC015CB
TEMPO 2210/2218 0700 FG VV002
FM221800 34003G12MPS 9999 BKN030CB OVC060
TEMPO 2218/2221 1000 BR VV003